createdAt,value
2022-10-20T00:00:03.053Z,0.00
2022-10-20T00:00:25.104Z,0.00
2022-10-20T00:01:00.895Z,0.00
2022-10-20T00:01:33.167Z,0.00
2022-10-20T00:02:05.713Z,0.00
2022-10-20T00:02:35.613Z,0.00
2022-10-20T00:03:08.449Z,0.00
2022-10-20T00:03:39.941Z,0.00
2022-10-20T00:04:02.372Z,0.00
2022-10-20T00:04:24.939Z,0.00
2022-10-20T00:05:00.334Z,0.00
2022-10-20T00:05:32.021Z,0.00
2022-10-20T00:06:03.836Z,0.00
2022-10-20T00:06:33.818Z,0.00
2022-10-20T00:07:08.041Z,0.00
2022-10-20T00:07:39.918Z,0.00
2022-10-20T00:08:02.592Z,0.00
2022-10-20T00:08:26.015Z,0.00
2022-10-20T00:09:00.082Z,0.00
2022-10-20T00:09:31.634Z,0.00
2022-10-20T00:10:04.314Z,0.00
2022-10-20T00:10:33.678Z,0.00
2022-10-20T00:11:07.671Z,0.00
2022-10-20T00:11:39.662Z,0.00
2022-10-20T00:12:02.374Z,0.00
2022-10-20T00:12:24.766Z,0.00
2022-10-20T00:12:59.799Z,0.00
2022-10-20T00:13:31.815Z,0.00
2022-10-20T00:14:03.675Z,0.00
2022-10-20T00:14:33.971Z,0.00
2022-10-20T00:15:07.857Z,0.00
2022-10-20T00:15:40.240Z,0.00
2022-10-20T00:16:03.009Z,0.00
2022-10-20T00:16:25.852Z,0.00
2022-10-20T00:17:00.066Z,0.00
2022-10-20T00:17:32.514Z,0.00
2022-10-20T00:18:04.197Z,0.00
2022-10-20T00:18:33.703Z,0.00
2022-10-20T00:19:08.002Z,0.00
2022-10-20T00:19:39.821Z,0.00
2022-10-20T00:20:02.681Z,0.00
2022-10-20T00:20:25.069Z,0.00
2022-10-20T00:20:59.725Z,0.00
2022-10-20T00:21:31.749Z,0.00
2022-10-20T00:22:03.702Z,0.00
2022-10-20T00:22:34.249Z,0.00
2022-10-20T00:23:07.671Z,0.00
2022-10-20T00:23:39.879Z,0.00
2022-10-20T00:24:02.555Z,0.00
2022-10-20T00:24:24.970Z,0.00
2022-10-20T00:24:59.677Z,0.00
2022-10-20T00:25:31.675Z,0.00
2022-10-20T00:26:03.904Z,0.00
2022-10-20T00:26:34.096Z,0.00
2022-10-20T00:27:08.194Z,0.00
2022-10-20T00:27:39.826Z,0.00
2022-10-20T00:28:02.502Z,0.00
2022-10-20T00:28:25.008Z,0.00
2022-10-20T00:28:59.538Z,0.00
2022-10-20T00:29:32.071Z,0.00
2022-10-20T00:30:03.814Z,0.00
2022-10-20T00:30:33.793Z,0.00
2022-10-20T00:31:08.691Z,0.00
2022-10-20T00:31:40.026Z,0.00
2022-10-20T00:32:02.692Z,0.00
2022-10-20T00:32:25.085Z,0.00
2022-10-20T00:32:59.993Z,0.00
2022-10-20T00:33:31.683Z,0.00
2022-10-20T00:34:03.698Z,0.00
2022-10-20T00:34:33.709Z,0.00
2022-10-20T00:35:07.852Z,0.00
2022-10-20T00:35:39.789Z,0.00
2022-10-20T00:36:02.466Z,0.00
2022-10-20T00:36:25.957Z,0.00
2022-10-20T00:36:59.835Z,0.00
2022-10-20T00:37:31.723Z,0.00
2022-10-20T00:38:03.703Z,0.00
2022-10-20T00:38:33.723Z,0.00
2022-10-20T00:39:07.602Z,0.00
2022-10-20T00:39:39.789Z,0.00
2022-10-20T00:40:02.896Z,0.00
2022-10-20T00:40:25.378Z,0.00
2022-10-20T00:41:00.520Z,0.00
2022-10-20T00:41:31.923Z,0.00
2022-10-20T00:42:04.440Z,0.00
2022-10-20T00:42:34.100Z,0.00
2022-10-20T00:43:07.729Z,0.00
2022-10-20T00:43:39.642Z,0.00
2022-10-20T00:44:02.472Z,0.00
2022-10-20T00:44:24.955Z,0.00
2022-10-20T00:44:59.664Z,0.00
2022-10-20T00:45:31.978Z,0.00
2022-10-20T00:46:03.594Z,0.00
2022-10-20T00:46:33.787Z,0.00
2022-10-20T00:47:07.681Z,0.00
2022-10-20T00:47:40.776Z,0.00
2022-10-20T00:48:03.201Z,0.00
2022-10-20T00:48:25.772Z,0.00
2022-10-20T00:49:00.289Z,0.00
2022-10-20T00:49:32.232Z,0.00
2022-10-20T00:50:03.739Z,0.00
2022-10-20T00:50:33.674Z,0.00
2022-10-20T00:51:08.329Z,0.00
2022-10-20T00:51:39.664Z,0.00
2022-10-20T00:52:02.779Z,0.00
2022-10-20T00:52:25.676Z,0.00
2022-10-20T00:52:59.966Z,0.00
2022-10-20T00:53:32.168Z,0.00
2022-10-20T00:54:03.901Z,0.00
2022-10-20T00:54:34.351Z,0.00
2022-10-20T00:55:07.654Z,0.00
2022-10-20T00:55:39.711Z,0.00
2022-10-20T00:56:02.671Z,0.00
2022-10-20T00:56:25.205Z,0.00
2022-10-20T00:57:00.202Z,0.00
2022-10-20T00:57:33.006Z,0.00
2022-10-20T00:58:04.251Z,0.00
2022-10-20T00:58:33.976Z,0.00
2022-10-20T00:59:08.187Z,0.00
2022-10-20T00:59:40.780Z,0.00
2022-10-20T01:00:03.485Z,0.00
2022-10-20T01:00:26.142Z,0.00
2022-10-20T01:00:59.628Z,0.00
2022-10-20T01:01:33.693Z,0.00
2022-10-20T01:02:05.289Z,0.00
2022-10-20T01:03:08.247Z,0.00
2022-10-20T01:03:40.613Z,0.00
2022-10-20T01:04:03.276Z,0.00
2022-10-20T01:04:25.677Z,0.00
2022-10-20T01:05:01.041Z,0.00
2022-10-20T01:05:31.883Z,0.00
2022-10-20T01:06:04.910Z,0.00
2022-10-20T01:06:36.355Z,0.00
2022-10-20T01:07:08.840Z,0.00
2022-10-20T01:07:39.881Z,0.00
2022-10-20T01:08:02.720Z,0.00
2022-10-20T01:08:26.606Z,0.00
2022-10-20T01:08:59.769Z,0.00
2022-10-20T01:09:32.302Z,0.00
2022-10-20T01:10:03.839Z,0.00
2022-10-20T01:10:34.385Z,0.00
2022-10-20T01:11:07.740Z,0.00
2022-10-20T01:11:39.854Z,0.00
2022-10-20T01:12:02.635Z,0.00
2022-10-20T01:12:25.040Z,0.00
2022-10-20T01:13:00.196Z,0.00
2022-10-20T01:13:31.748Z,0.00
2022-10-20T01:14:04.228Z,0.00
2022-10-20T01:14:34.028Z,0.00
2022-10-20T01:15:07.841Z,0.00
2022-10-20T01:15:39.753Z,0.00
2022-10-20T01:16:02.319Z,0.00
2022-10-20T01:16:24.945Z,0.00
2022-10-20T01:16:59.816Z,0.00
2022-10-20T01:17:32.322Z,0.00
2022-10-20T01:18:03.842Z,0.00
2022-10-20T01:18:33.771Z,0.00
2022-10-20T01:19:07.740Z,0.00
2022-10-20T01:19:39.930Z,0.00
2022-10-20T01:20:02.588Z,0.00
2022-10-20T01:20:24.897Z,0.00
2022-10-20T01:21:01.068Z,0.00
2022-10-20T01:21:31.753Z,0.00
2022-10-20T01:22:03.861Z,0.00
2022-10-20T01:22:33.600Z,0.00
2022-10-20T01:23:07.668Z,0.00
2022-10-20T01:23:39.657Z,0.00
2022-10-20T01:24:02.441Z,0.00
2022-10-20T01:24:24.947Z,0.00
2022-10-20T01:24:59.662Z,0.00
2022-10-20T01:25:31.700Z,0.00
2022-10-20T01:26:03.652Z,0.00
2022-10-20T01:26:34.162Z,0.00
2022-10-20T01:27:08.048Z,0.00
2022-10-20T01:27:40.022Z,0.00
2022-10-20T01:28:02.514Z,0.00
2022-10-20T01:28:24.857Z,0.00
2022-10-20T01:28:59.726Z,0.00
2022-10-20T01:29:31.661Z,0.00
2022-10-20T01:30:03.953Z,0.00
2022-10-20T01:30:33.841Z,0.00
2022-10-20T01:31:07.820Z,0.00
2022-10-20T01:31:39.629Z,0.00
2022-10-20T01:32:02.320Z,0.00
2022-10-20T01:32:24.749Z,0.00
2022-10-20T01:32:59.674Z,0.00
2022-10-20T01:33:31.690Z,0.00
2022-10-20T01:34:03.499Z,0.00
2022-10-20T01:34:35.757Z,0.00
2022-10-20T01:35:07.774Z,0.00
2022-10-20T01:35:39.937Z,0.00
2022-10-20T01:36:02.560Z,0.00
2022-10-20T01:36:25.021Z,0.00
2022-10-20T01:37:00.051Z,0.00
2022-10-20T01:37:40.762Z,0.00
2022-10-20T01:38:03.791Z,0.00
2022-10-20T01:38:34.050Z,0.00
2022-10-20T01:39:07.722Z,0.00
2022-10-20T01:39:39.664Z,0.00
2022-10-20T01:40:02.325Z,0.00
2022-10-20T01:40:24.740Z,0.00
2022-10-20T01:40:59.544Z,0.00
2022-10-20T01:41:31.603Z,0.00
2022-10-20T01:42:03.683Z,0.00
2022-10-20T01:43:07.766Z,0.00
2022-10-20T01:43:39.626Z,0.00
2022-10-20T01:44:02.310Z,0.00
2022-10-20T01:44:24.708Z,0.00
2022-10-20T01:44:59.835Z,0.00
2022-10-20T01:45:31.609Z,0.00
2022-10-20T01:46:03.748Z,0.00
2022-10-20T01:46:34.009Z,0.00
2022-10-20T01:47:08.018Z,0.00
2022-10-20T01:47:39.778Z,0.00
2022-10-20T01:48:02.400Z,0.00
2022-10-20T01:48:25.018Z,0.00
2022-10-20T01:48:59.578Z,0.00
2022-10-20T01:49:31.793Z,0.00
2022-10-20T01:50:04.312Z,0.00
2022-10-20T01:50:34.167Z,0.00
2022-10-20T01:51:07.665Z,0.00
2022-10-20T01:52:02.855Z,0.00
2022-10-20T01:52:25.261Z,0.00
2022-10-20T01:53:00.509Z,0.00
2022-10-20T01:53:31.649Z,0.00
2022-10-20T01:54:04.991Z,0.00
2022-10-20T01:54:35.588Z,0.00
2022-10-20T01:55:08.870Z,0.00
2022-10-20T01:55:39.607Z,0.00
2022-10-20T01:56:03.711Z,0.00
2022-10-20T01:56:24.643Z,0.00
2022-10-20T01:56:59.978Z,0.00
2022-10-20T01:57:31.659Z,0.00
2022-10-20T01:58:03.887Z,0.00
2022-10-20T01:58:34.545Z,0.00
2022-10-20T01:59:07.821Z,0.00
2022-10-20T01:59:39.576Z,0.00
2022-10-20T02:00:02.584Z,0.00
2022-10-20T02:00:24.896Z,0.00
2022-10-20T02:01:00.391Z,0.00
2022-10-20T02:01:34.343Z,0.00
2022-10-20T02:02:04.150Z,0.00
2022-10-20T02:03:08.124Z,0.00
2022-10-20T02:03:39.822Z,0.00
2022-10-20T02:04:02.950Z,0.00
2022-10-20T02:04:26.834Z,0.00
2022-10-20T02:04:59.726Z,0.00
2022-10-20T02:05:32.331Z,0.00
2022-10-20T02:06:03.605Z,0.00
2022-10-20T02:06:34.651Z,0.00
2022-10-20T02:07:07.720Z,0.00
2022-10-20T02:07:40.600Z,0.00
2022-10-20T02:08:03.211Z,0.00
2022-10-20T02:08:26.661Z,0.00
2022-10-20T02:09:00.045Z,0.00
2022-10-20T02:09:31.588Z,0.00
2022-10-20T02:10:05.437Z,0.00
2022-10-20T02:10:36.160Z,0.00
2022-10-20T02:11:07.725Z,0.00
2022-10-20T02:11:40.254Z,0.00
2022-10-20T02:12:02.798Z,0.00
2022-10-20T02:12:25.799Z,0.00
2022-10-20T02:12:59.624Z,0.00
2022-10-20T02:13:31.765Z,0.00
2022-10-20T02:14:03.526Z,0.00
2022-10-20T02:14:34.029Z,0.00
2022-10-20T02:15:08.071Z,0.00
2022-10-20T02:15:40.222Z,0.00
2022-10-20T02:16:02.790Z,0.00
2022-10-20T02:16:25.702Z,0.00
2022-10-20T02:16:59.919Z,0.00
2022-10-20T02:17:32.079Z,0.00
2022-10-20T02:18:03.657Z,0.00
2022-10-20T02:18:33.618Z,0.00
2022-10-20T02:19:07.645Z,0.00
2022-10-20T02:19:39.567Z,0.00
2022-10-20T02:20:02.365Z,0.00
2022-10-20T02:20:24.963Z,0.00
2022-10-20T02:20:59.685Z,0.00
2022-10-20T02:21:31.811Z,0.00
2022-10-20T02:22:03.572Z,0.00
2022-10-20T02:22:34.706Z,0.00
2022-10-20T02:23:07.506Z,0.00
2022-10-20T02:23:39.967Z,0.00
2022-10-20T02:24:02.621Z,0.00
2022-10-20T02:24:24.953Z,0.00
2022-10-20T02:24:59.610Z,0.00
2022-10-20T02:25:31.721Z,0.00
2022-10-20T02:26:03.649Z,0.00
2022-10-20T02:26:33.669Z,0.00
2022-10-20T02:27:07.665Z,0.00
2022-10-20T02:27:39.586Z,0.00
2022-10-20T02:28:02.426Z,0.00
2022-10-20T02:28:25.161Z,0.00
2022-10-20T02:28:59.582Z,0.00
2022-10-20T02:29:31.663Z,0.00
2022-10-20T02:30:03.627Z,0.00
2022-10-20T02:30:33.940Z,0.00
2022-10-20T02:31:07.520Z,0.00
2022-10-20T02:31:40.101Z,0.00
2022-10-20T02:32:02.874Z,0.00
2022-10-20T02:32:25.203Z,0.00
2022-10-20T02:32:59.729Z,0.00
2022-10-20T02:33:31.672Z,0.00
2022-10-20T02:34:03.621Z,0.00
2022-10-20T02:34:33.752Z,0.00
2022-10-20T02:35:08.350Z,0.00
2022-10-20T02:35:40.197Z,0.00
2022-10-20T02:36:02.819Z,0.00
2022-10-20T02:36:25.253Z,0.00
2022-10-20T02:36:59.944Z,0.00
2022-10-20T02:37:33.396Z,0.00
2022-10-20T02:38:06.090Z,0.00
2022-10-20T02:38:36.089Z,0.00
2022-10-20T02:39:07.512Z,0.00
2022-10-20T02:39:39.684Z,0.00
2022-10-20T02:40:02.403Z,0.00
2022-10-20T02:40:24.946Z,0.00
2022-10-20T02:40:59.766Z,0.00
2022-10-20T02:41:31.610Z,0.00
2022-10-20T02:42:04.096Z,0.00
2022-10-20T02:42:34.067Z,0.00
2022-10-20T02:43:08.347Z,0.00
2022-10-20T02:43:39.570Z,0.00
2022-10-20T02:44:02.281Z,0.00
2022-10-20T02:44:25.003Z,0.00
2022-10-20T02:44:59.594Z,0.00
2022-10-20T02:45:31.670Z,0.00
2022-10-20T02:46:04.025Z,0.00
2022-10-20T02:46:33.881Z,0.00
2022-10-20T02:47:07.612Z,0.00
2022-10-20T02:47:39.827Z,0.00
2022-10-20T02:48:04.199Z,0.00
2022-10-20T02:48:24.796Z,0.00
2022-10-20T02:48:59.578Z,0.00
2022-10-20T02:49:31.987Z,0.00
2022-10-20T02:50:04.357Z,0.00
2022-10-20T02:50:33.613Z,0.00
2022-10-20T02:51:08.598Z,0.00
2022-10-20T02:51:39.681Z,0.00
2022-10-20T02:52:02.477Z,0.00
2022-10-20T02:52:25.566Z,0.00
2022-10-20T02:52:59.562Z,0.00
2022-10-20T02:53:32.236Z,0.00
2022-10-20T02:54:03.563Z,0.00
2022-10-20T02:54:33.827Z,0.00
2022-10-20T02:55:07.510Z,0.00
2022-10-20T02:55:39.816Z,0.00
2022-10-20T02:56:02.490Z,0.00
2022-10-20T02:56:27.561Z,0.00
2022-10-20T02:57:03.470Z,0.00
2022-10-20T02:57:36.625Z,0.00
2022-10-20T02:57:58.781Z,0.00
2022-10-20T02:58:33.763Z,0.00
2022-10-20T02:59:07.608Z,0.00
2022-10-20T02:59:39.713Z,0.00
2022-10-20T03:00:02.522Z,0.00
2022-10-20T03:00:24.844Z,0.00
2022-10-20T03:00:59.710Z,0.00
2022-10-20T03:01:31.885Z,0.00
2022-10-20T03:02:05.153Z,0.00
2022-10-20T03:03:07.741Z,0.00
2022-10-20T03:03:39.621Z,0.00
2022-10-20T03:04:02.584Z,0.00
2022-10-20T03:04:59.672Z,0.00
2022-10-20T03:05:31.597Z,0.00
2022-10-20T03:06:03.616Z,0.00
2022-10-20T03:06:33.741Z,0.00
2022-10-20T03:07:07.615Z,0.00
2022-10-20T03:07:39.594Z,0.00
2022-10-20T03:08:03.019Z,0.00
2022-10-20T03:08:25.434Z,0.00
2022-10-20T03:08:59.523Z,0.00
2022-10-20T03:09:32.988Z,0.00
2022-10-20T03:10:03.687Z,0.00
2022-10-20T03:10:33.619Z,0.00
2022-10-20T03:11:07.651Z,0.00
2022-10-20T03:11:40.063Z,0.00
2022-10-20T03:12:02.878Z,0.00
2022-10-20T03:12:28.836Z,0.00
2022-10-20T03:12:59.509Z,0.00
2022-10-20T03:13:31.560Z,0.00
2022-10-20T03:14:03.709Z,0.00
2022-10-20T03:14:33.623Z,0.00
2022-10-20T03:15:07.616Z,0.00
2022-10-20T03:15:39.504Z,0.00
2022-10-20T03:16:02.389Z,0.00
2022-10-20T03:16:24.856Z,0.00
2022-10-20T03:16:59.612Z,0.00
2022-10-20T03:17:31.487Z,0.00
2022-10-20T03:18:03.616Z,0.00
2022-10-20T03:18:33.662Z,0.00
2022-10-20T03:19:11.375Z,0.00
2022-10-20T03:19:39.455Z,0.00
2022-10-20T03:20:02.145Z,0.00
2022-10-20T03:20:24.464Z,0.00
2022-10-20T03:20:59.834Z,0.00
2022-10-20T03:21:31.447Z,0.00
2022-10-20T03:22:03.561Z,0.00
2022-10-20T03:22:33.625Z,0.00
2022-10-20T03:23:07.457Z,0.00
2022-10-20T03:23:39.484Z,0.00
2022-10-20T03:24:02.150Z,0.00
2022-10-20T03:24:24.536Z,0.00
2022-10-20T03:24:59.628Z,0.00
2022-10-20T03:25:31.566Z,0.00
2022-10-20T03:26:03.459Z,0.00
2022-10-20T03:26:33.636Z,0.00
2022-10-20T03:27:07.594Z,0.00
2022-10-20T03:27:39.605Z,0.00
2022-10-20T03:28:03.161Z,0.00
2022-10-20T03:28:25.504Z,0.00
2022-10-20T03:28:59.755Z,0.00
2022-10-20T03:29:31.601Z,0.00
2022-10-20T03:30:03.687Z,0.00
2022-10-20T03:30:33.685Z,0.00
2022-10-20T03:31:07.586Z,0.00
2022-10-20T03:31:39.638Z,0.00
2022-10-20T03:32:02.681Z,0.00
2022-10-20T03:32:25.186Z,0.00
2022-10-20T03:32:59.613Z,0.00
2022-10-20T03:33:31.435Z,0.00
2022-10-20T03:34:03.576Z,0.00
2022-10-20T03:34:33.759Z,0.00
2022-10-20T03:35:07.610Z,0.00
2022-10-20T03:35:39.627Z,0.00
2022-10-20T03:36:02.965Z,0.00
2022-10-20T03:36:25.276Z,0.00
2022-10-20T03:36:59.473Z,0.00
2022-10-20T03:37:31.755Z,0.00
2022-10-20T03:38:03.588Z,0.00
2022-10-20T03:38:33.764Z,0.00
2022-10-20T03:39:07.702Z,0.00
2022-10-20T03:39:39.599Z,0.00
2022-10-20T03:40:02.488Z,0.00
2022-10-20T03:40:24.773Z,0.00
2022-10-20T03:40:59.440Z,0.00
2022-10-20T03:41:31.717Z,0.00
2022-10-20T03:42:03.464Z,0.00
2022-10-20T03:42:33.891Z,0.00
2022-10-20T03:43:07.553Z,0.00
2022-10-20T03:43:39.571Z,0.00
2022-10-20T03:44:02.509Z,0.00
2022-10-20T03:44:24.901Z,0.00
2022-10-20T03:44:59.684Z,0.00
2022-10-20T03:45:31.558Z,0.00
2022-10-20T03:46:03.581Z,0.00
2022-10-20T03:46:33.707Z,0.00
2022-10-20T03:47:07.851Z,0.00
2022-10-20T03:47:39.618Z,0.00
2022-10-20T03:48:02.260Z,0.00
2022-10-20T03:48:24.867Z,0.00
2022-10-20T03:48:59.586Z,0.00
2022-10-20T03:49:31.484Z,0.00
2022-10-20T03:50:33.662Z,0.00
2022-10-20T03:51:07.609Z,0.00
2022-10-20T03:51:39.582Z,0.00
2022-10-20T03:52:04.879Z,0.00
2022-10-20T03:52:27.713Z,0.00
2022-10-20T03:52:59.583Z,0.00
2022-10-20T03:53:31.434Z,0.00
2022-10-20T03:54:03.558Z,0.00
2022-10-20T03:54:33.786Z,0.00
2022-10-20T03:55:07.514Z,0.00
2022-10-20T03:55:39.447Z,0.00
2022-10-20T03:56:02.597Z,0.00
2022-10-20T03:56:24.647Z,0.00
2022-10-20T03:56:59.758Z,0.00
2022-10-20T03:57:31.551Z,0.00
2022-10-20T03:58:03.493Z,0.00
2022-10-20T03:58:34.019Z,0.00
2022-10-20T03:59:07.503Z,0.00
2022-10-20T03:59:39.576Z,0.00
2022-10-20T04:00:04.431Z,0.00
2022-10-20T04:00:26.478Z,0.00
2022-10-20T04:00:59.623Z,0.00
2022-10-20T04:01:31.635Z,0.00
2022-10-20T04:02:03.549Z,0.00
2022-10-20T04:03:09.050Z,0.00
2022-10-20T04:03:39.680Z,0.00
2022-10-20T04:04:02.424Z,0.00
2022-10-20T04:04:25.155Z,0.00
2022-10-20T04:04:59.614Z,0.00
2022-10-20T04:05:31.495Z,0.00
2022-10-20T04:06:03.627Z,0.00
2022-10-20T04:06:33.868Z,0.00
2022-10-20T04:07:07.668Z,0.00
2022-10-20T04:07:39.479Z,0.00
2022-10-20T04:08:02.499Z,0.00
2022-10-20T04:08:24.662Z,0.00
2022-10-20T04:08:59.700Z,0.00
2022-10-20T04:09:31.653Z,0.00
2022-10-20T04:10:03.728Z,0.00
2022-10-20T04:10:33.693Z,0.00
2022-10-20T04:11:07.782Z,0.00
2022-10-20T04:11:39.549Z,0.00
2022-10-20T04:12:02.492Z,0.00
2022-10-20T04:12:24.795Z,0.00
2022-10-20T04:12:59.540Z,0.00
2022-10-20T04:13:31.692Z,0.00
2022-10-20T04:14:03.561Z,0.00
2022-10-20T04:14:33.733Z,0.00
2022-10-20T04:15:07.611Z,0.00
2022-10-20T04:15:39.566Z,0.00
2022-10-20T04:16:02.910Z,0.00
2022-10-20T04:16:25.202Z,0.00
2022-10-20T04:16:59.410Z,0.00
2022-10-20T04:17:31.751Z,0.00
2022-10-20T04:18:04.029Z,0.00
2022-10-20T04:18:35.733Z,0.00
2022-10-20T04:19:07.627Z,0.00
2022-10-20T04:19:39.628Z,0.00
2022-10-20T04:20:02.617Z,0.00
2022-10-20T04:20:24.951Z,0.00
2022-10-20T04:20:59.460Z,0.00
2022-10-20T04:21:31.419Z,0.00
2022-10-20T04:22:03.590Z,0.00
2022-10-20T04:22:34.187Z,0.00
2022-10-20T04:23:07.571Z,0.00
2022-10-20T04:23:39.530Z,0.00
2022-10-20T04:24:02.349Z,0.00
2022-10-20T04:24:24.624Z,0.00
2022-10-20T04:24:59.596Z,0.00
2022-10-20T04:25:31.657Z,0.00
2022-10-20T04:26:03.803Z,0.00
2022-10-20T04:26:33.652Z,0.00
2022-10-20T04:27:07.633Z,0.00
2022-10-20T04:27:39.560Z,0.00
2022-10-20T04:28:02.291Z,0.00
2022-10-20T04:28:24.595Z,0.00
2022-10-20T04:28:59.587Z,0.00
2022-10-20T04:29:31.593Z,0.00
2022-10-20T04:30:03.723Z,0.00
2022-10-20T04:30:34.136Z,0.00
2022-10-20T04:31:07.443Z,0.00
2022-10-20T04:31:39.537Z,0.00
2022-10-20T04:32:02.458Z,0.00
2022-10-20T04:32:24.861Z,0.00
2022-10-20T04:33:00.039Z,0.00
2022-10-20T04:33:31.432Z,0.00
2022-10-20T04:34:03.443Z,0.00
2022-10-20T04:34:33.689Z,0.00
2022-10-20T04:35:07.789Z,0.00
2022-10-20T04:35:39.675Z,0.00
2022-10-20T04:36:02.227Z,0.00
2022-10-20T04:36:24.610Z,0.00
2022-10-20T04:36:59.454Z,0.00
2022-10-20T04:37:31.410Z,0.00
2022-10-20T04:38:03.543Z,0.00
2022-10-20T04:38:33.753Z,0.00
2022-10-20T04:39:07.531Z,0.00
2022-10-20T04:39:39.496Z,0.00
2022-10-20T04:40:02.138Z,0.00
2022-10-20T04:40:24.546Z,0.00
2022-10-20T04:41:01.912Z,0.00
2022-10-20T04:41:31.639Z,0.00
2022-10-20T04:42:03.446Z,0.00
2022-10-20T04:42:33.906Z,0.00
2022-10-20T04:43:07.499Z,0.00
2022-10-20T04:43:39.440Z,0.00
2022-10-20T04:44:02.137Z,0.00
2022-10-20T04:44:24.449Z,0.00
2022-10-20T04:44:59.421Z,0.00
2022-10-20T04:45:31.686Z,0.00
2022-10-20T04:46:06.999Z,0.00
2022-10-20T04:46:33.690Z,0.00
2022-10-20T04:47:07.777Z,0.00
2022-10-20T04:47:39.791Z,0.00
2022-10-20T04:48:02.253Z,0.00
2022-10-20T04:48:24.511Z,0.00
2022-10-20T04:48:59.478Z,0.00
2022-10-20T04:49:31.503Z,0.00
2022-10-20T04:50:03.677Z,0.00
2022-10-20T04:50:33.740Z,0.00
2022-10-20T04:51:07.668Z,0.00
2022-10-20T04:51:39.502Z,0.00
2022-10-20T04:52:02.219Z,0.00
2022-10-20T04:52:24.493Z,0.00
2022-10-20T04:52:59.614Z,0.00
2022-10-20T04:53:31.456Z,0.00
2022-10-20T04:54:06.574Z,0.00
2022-10-20T04:54:33.651Z,0.00
2022-10-20T04:55:07.494Z,0.00
2022-10-20T04:55:39.379Z,0.00
2022-10-20T04:56:02.385Z,0.00
2022-10-20T04:56:24.700Z,0.00
2022-10-20T04:56:59.613Z,0.00
2022-10-20T04:57:31.404Z,0.00
2022-10-20T04:58:03.486Z,0.00
2022-10-20T04:58:35.727Z,0.00
2022-10-20T04:59:09.686Z,0.00
2022-10-20T04:59:39.645Z,0.00
2022-10-20T05:00:02.277Z,0.00
2022-10-20T05:00:24.507Z,0.00
2022-10-20T05:00:59.584Z,0.00
2022-10-20T05:01:31.982Z,0.00
2022-10-20T05:02:03.617Z,0.00
2022-10-20T05:03:12.973Z,0.00
2022-10-20T05:03:39.497Z,0.00
2022-10-20T05:04:02.273Z,0.00
2022-10-20T05:04:24.566Z,0.00
2022-10-20T05:04:59.677Z,0.00
2022-10-20T05:05:31.620Z,0.00
2022-10-20T05:06:03.658Z,0.00
2022-10-20T05:06:33.756Z,0.00
2022-10-20T05:07:07.498Z,0.00
2022-10-20T05:07:39.899Z,0.00
2022-10-20T05:08:02.589Z,0.00
2022-10-20T05:08:24.816Z,0.00
2022-10-20T05:08:59.648Z,0.00
2022-10-20T05:09:31.638Z,0.00
2022-10-20T05:10:04.926Z,0.00
2022-10-20T05:10:36.607Z,0.00
2022-10-20T05:11:07.867Z,0.00
2022-10-20T05:11:39.554Z,0.00
2022-10-20T05:12:02.648Z,0.00
2022-10-20T05:12:24.911Z,0.00
2022-10-20T05:12:59.572Z,0.00
2022-10-20T05:13:31.890Z,0.00
2022-10-20T05:14:03.544Z,0.00
2022-10-20T05:14:33.673Z,0.00
2022-10-20T05:15:07.726Z,0.00
2022-10-20T05:15:39.576Z,0.00
2022-10-20T05:16:02.475Z,0.00
2022-10-20T05:16:26.356Z,0.00
2022-10-20T05:16:59.410Z,0.00
2022-10-20T05:17:31.657Z,0.00
2022-10-20T05:18:03.426Z,0.00
2022-10-20T05:18:33.821Z,0.00
2022-10-20T05:19:07.515Z,0.00
2022-10-20T05:19:39.518Z,0.00
2022-10-20T05:20:02.616Z,0.00
2022-10-20T05:20:24.942Z,0.00
2022-10-20T05:21:09.030Z,0.00
2022-10-20T05:21:31.596Z,0.00
2022-10-20T05:22:03.532Z,0.00
2022-10-20T05:22:34.081Z,0.00
2022-10-20T05:23:07.401Z,0.00
2022-10-20T05:23:39.483Z,0.00
2022-10-20T05:24:02.264Z,0.00
2022-10-20T05:24:27.765Z,0.00
2022-10-20T05:25:12.847Z,0.00
2022-10-20T05:25:36.541Z,0.00
2022-10-20T05:26:03.606Z,0.00
2022-10-20T05:26:33.652Z,0.00
2022-10-20T05:27:07.471Z,0.00
2022-10-20T05:27:39.378Z,0.00
2022-10-20T05:28:02.320Z,0.00
2022-10-20T05:28:24.666Z,0.00
2022-10-20T05:28:59.568Z,0.00
2022-10-20T05:29:31.550Z,0.00
2022-10-20T05:30:03.591Z,0.00
2022-10-20T05:30:33.867Z,0.00
2022-10-20T05:31:07.558Z,0.00
2022-10-20T05:31:39.551Z,0.00
2022-10-20T05:32:02.460Z,0.00
2022-10-20T05:32:24.547Z,0.00
2022-10-20T05:32:59.527Z,0.00
2022-10-20T05:33:31.722Z,0.00
2022-10-20T05:34:03.494Z,0.00
2022-10-20T05:34:33.799Z,0.00
2022-10-20T05:35:07.451Z,0.00
2022-10-20T05:35:39.578Z,0.00
2022-10-20T05:36:02.663Z,0.00
2022-10-20T05:36:24.983Z,0.00
2022-10-20T05:36:59.552Z,0.00
2022-10-20T05:37:31.552Z,0.00
2022-10-20T05:38:03.578Z,0.00
2022-10-20T05:38:33.769Z,0.00
2022-10-20T05:39:07.591Z,0.00
2022-10-20T05:39:39.587Z,0.00
2022-10-20T05:40:02.293Z,0.00
2022-10-20T05:40:24.722Z,0.00
2022-10-20T05:40:59.571Z,0.00
2022-10-20T05:41:33.509Z,0.00
2022-10-20T05:42:03.480Z,0.00
2022-10-20T05:42:34.068Z,0.00
2022-10-20T05:43:07.495Z,0.00
2022-10-20T05:43:39.434Z,0.00
2022-10-20T05:44:02.395Z,0.00
2022-10-20T05:44:24.648Z,0.00
2022-10-20T05:44:59.534Z,0.00
2022-10-20T05:45:31.576Z,0.00
2022-10-20T05:46:03.551Z,0.00
2022-10-20T05:46:33.830Z,0.00
2022-10-20T05:47:07.536Z,0.00
2022-10-20T05:47:39.612Z,0.00
2022-10-20T05:48:02.321Z,0.00
2022-10-20T05:48:24.553Z,0.00
2022-10-20T05:48:59.573Z,0.00
2022-10-20T05:49:31.643Z,0.00
2022-10-20T05:50:03.445Z,0.00
2022-10-20T05:50:33.862Z,0.00
2022-10-20T05:51:10.693Z,0.00
2022-10-20T05:51:39.556Z,0.00
2022-10-20T05:52:03.963Z,0.00
2022-10-20T05:52:24.882Z,0.00
2022-10-20T05:52:59.528Z,0.00
2022-10-20T05:53:31.634Z,0.00
2022-10-20T05:54:03.917Z,0.00
2022-10-20T05:54:33.710Z,0.00
2022-10-20T05:55:07.554Z,0.00
2022-10-20T05:55:39.621Z,0.36
2022-10-20T05:56:02.276Z,0.85
2022-10-20T05:56:24.672Z,0.85
2022-10-20T05:56:59.601Z,0.85
2022-10-20T05:57:31.494Z,0.36
2022-10-20T05:58:03.659Z,0.36
2022-10-20T05:58:33.790Z,1.22
2022-10-20T05:59:07.938Z,1.71
2022-10-20T05:59:39.624Z,0.85
2022-10-20T06:00:02.918Z,0.36
2022-10-20T06:00:25.104Z,0.85
2022-10-20T06:01:00.199Z,1.22
2022-10-20T06:02:03.716Z,1.22
2022-10-20T06:03:17.588Z,2.08
2022-10-20T06:03:38.470Z,1.71
2022-10-20T06:04:01.316Z,1.71
2022-10-20T06:04:23.511Z,1.71
2022-10-20T06:05:03.450Z,2.57
2022-10-20T06:05:31.934Z,2.57
2022-10-20T06:06:03.733Z,2.94
2022-10-20T06:06:34.411Z,2.94
2022-10-20T06:07:08.455Z,3.43
2022-10-20T06:07:39.827Z,3.79
2022-10-20T06:08:02.575Z,3.79
2022-10-20T06:08:26.000Z,4.77
2022-10-20T06:09:00.287Z,3.79
2022-10-20T06:09:32.478Z,4.77
2022-10-20T06:10:10.120Z,5.14
2022-10-20T06:10:34.993Z,5.14
2022-10-20T06:11:08.046Z,5.14
2022-10-20T06:11:39.978Z,5.99
2022-10-20T06:12:02.613Z,5.63
2022-10-20T06:12:26.421Z,5.99
2022-10-20T06:12:59.538Z,6.48
2022-10-20T06:13:31.688Z,6.48
2022-10-20T06:14:03.714Z,7.34
2022-10-20T06:14:33.862Z,7.34
2022-10-20T06:15:07.824Z,7.34
2022-10-20T06:15:39.478Z,8.19
2022-10-20T06:16:02.265Z,7.70
2022-10-20T06:16:25.121Z,7.70
2022-10-20T06:16:59.715Z,8.56
2022-10-20T06:17:31.688Z,8.56
2022-10-20T06:18:03.718Z,9.54
2022-10-20T06:18:33.735Z,9.54
2022-10-20T06:19:07.586Z,10.39
2022-10-20T06:19:39.513Z,10.39
2022-10-20T06:20:02.490Z,10.77
2022-10-20T06:20:24.829Z,10.77
2022-10-20T06:20:59.685Z,11.25
2022-10-20T06:21:31.655Z,12.48
2022-10-20T06:22:05.788Z,12.48
2022-10-20T06:22:34.254Z,12.11
2022-10-20T06:23:07.650Z,12.97
2022-10-20T06:23:39.607Z,13.33
2022-10-20T06:24:02.288Z,13.33
2022-10-20T06:24:24.812Z,14.31
2022-10-20T06:24:59.488Z,14.68
2022-10-20T06:25:31.978Z,15.17
2022-10-20T06:26:03.853Z,15.53
2022-10-20T06:26:33.848Z,16.39
2022-10-20T06:27:07.559Z,16.88
2022-10-20T06:27:39.502Z,16.88
2022-10-20T06:28:02.286Z,16.88
2022-10-20T06:28:25.054Z,17.25
2022-10-20T06:29:03.972Z,17.73
2022-10-20T06:29:31.480Z,18.60
2022-10-20T06:30:03.735Z,19.45
2022-10-20T06:30:33.808Z,19.45
2022-10-20T06:31:07.692Z,20.31
2022-10-20T06:31:39.514Z,21.65
2022-10-20T06:32:02.294Z,20.80
2022-10-20T06:32:24.591Z,22.02
2022-10-20T06:32:59.803Z,22.87
2022-10-20T06:33:31.500Z,23.36
2022-10-20T06:34:03.510Z,23.36
2022-10-20T06:34:33.905Z,23.85
2022-10-20T06:35:07.853Z,24.71
2022-10-20T06:35:39.573Z,25.56
2022-10-20T06:36:02.547Z,25.56
2022-10-20T06:36:24.885Z,25.07
2022-10-20T06:36:59.641Z,25.94
2022-10-20T06:37:31.764Z,26.42
2022-10-20T06:38:03.519Z,26.42
2022-10-20T06:38:33.901Z,26.42
2022-10-20T06:39:07.625Z,26.79
2022-10-20T06:39:39.601Z,27.65
2022-10-20T06:40:02.325Z,27.65
2022-10-20T06:40:24.595Z,28.63
2022-10-20T06:40:59.940Z,28.63
2022-10-20T06:41:31.571Z,28.63
2022-10-20T06:42:06.977Z,28.99
2022-10-20T06:42:34.213Z,28.99
2022-10-20T06:43:07.595Z,29.85
2022-10-20T06:43:39.478Z,30.34